الصفحة الرئيسية
METAR-TAF:

METAR-TAF

مطار :

البحرين, البحرين

مطار البحرين الدولي

دائرة عرض: 26-16N, خط طول: 050-39E, ارتفاع: 2 متر

مراقبة الطقس الحالي

تاريخ ووقت الإصدار 13 دقيقة قبل الساعة 16:00UTC
ريح 13 عقدة من الشرق/الجنوب الشرقي
درجة الحرارة 28°درجة مئوية
الرطوبة 70%
ضغط 1006 hPa
الرؤية: 8000 متر

METAR: OBBI 221600Z 11013KT 8000 NSC 28/22 Q1006 NOSIG

زمن: 19:13 (16:13 UTC)

توقعات

تاريخ ووقت الإصدار 5ساعات و 13 دقيقة قبل الساعة 11:00UTC
التوقعات صالحة من22 الساعة 12 UTC إلى 23 الساعة 18 UTC
ريح 8 عقدة من الجنوب/الجنوب الشرقي
الرؤية: 7000 متر
مؤقت
من 22 الساعة 12 UTC إلى 22 الساعة 15 UTC
الرؤية: 4000 متر
غبار
نظرية الاحتمالات 30% :
مؤقت
من 22 الساعة 16 UTC إلى 23 الساعة 06 UTC
ريح 20 عقدةمن اتجاهات متغيرة تتزايد حتى 30 عقدة
الرؤية: 5000 متر
غيوم متفرقة على ارتفاع 4000 قدم, مزنة ركامية.
غيوم مفككة على ارتفاع 10000 قدم
عاصفة رعدية, مطر
أصبح
من 23 الساعة 16 UTC إلى 23 الساعة 18 UTC
ريح 12 عقدة من الشمال/الشمال الغربي

TAF: OBBI 221100Z 2212/2318 16008KT 7000 NSC TEMPO 2212/2215 4000 DU PROB30 TEMPO 2216/2306 VRB20G30KT 5000 TSRA SCT040CB BKN100 BECMG 2316/2318 34012KT

أرصاد الطقس والتوقعات من أكثر من 4000 مطار (تقارير الطقس للمطار METAR والتنبؤ بالطقس بالمطارTAF).

المحطات المتاحة هي النقط الصفراء والحمراء على الخريطة.

حرك المؤشر فوق النقطة لمعرفة اسم المحطة.

ثم انقر لمعرفة أرصاد وتوقعات الطقس.

لتغيير الخارطة: اضغط على الأزرار الخضراء مع رمز الصليب الأسود للتكبير. على الزر الأخضر مع شرطة للتصغير، أو على الأسهم الخضراء للخرائط المجاورة.


METAR-TAF: